createdAt,value
2023-03-21T00:00:04.188Z,7.70
2023-03-21T00:02:33.622Z,7.80
2023-03-21T00:05:13.280Z,7.70
2023-03-21T00:07:41.884Z,7.70
2023-03-21T00:13:00.585Z,7.70
2023-03-21T00:15:39.897Z,7.70
2023-03-21T00:18:11.456Z,7.60
2023-03-21T00:20:40.733Z,7.60
2023-03-21T00:23:09.038Z,7.60
2023-03-21T00:25:39.102Z,7.60
2023-03-21T00:28:08.882Z,7.60
2023-03-21T00:30:37.289Z,7.50
2023-03-21T00:33:19.694Z,7.60
2023-03-21T00:36:02.579Z,7.60
2023-03-21T00:38:34.201Z,7.70
2023-03-21T00:41:18.784Z,7.60
2023-03-21T00:43:52.132Z,7.60
2023-03-21T00:46:23.294Z,7.60
2023-03-21T00:48:51.971Z,7.60
2023-03-21T00:51:26.705Z,7.60
2023-03-21T00:53:57.090Z,7.60
2023-03-21T00:56:26.926Z,7.60
2023-03-21T00:58:55.301Z,7.50
2023-03-21T01:01:23.579Z,7.50
2023-03-21T01:04:04.004Z,7.60
2023-03-21T01:06:32.507Z,7.60
2023-03-21T01:09:01.024Z,7.60
2023-03-21T01:11:32.219Z,7.50
2023-03-21T01:14:18.680Z,7.50
2023-03-21T01:16:50.304Z,7.50
2023-03-21T01:19:27.531Z,7.60
2023-03-21T01:22:00.886Z,7.60
2023-03-21T01:24:35.586Z,7.50
2023-03-21T01:27:07.444Z,7.60
2023-03-21T01:29:36.931Z,7.60
2023-03-21T01:32:15.807Z,7.60
2023-03-21T01:34:44.120Z,7.50
2023-03-21T01:37:17.236Z,7.60
2023-03-21T01:39:45.740Z,7.60
2023-03-21T01:42:17.290Z,7.60
2023-03-21T01:44:58.412Z,7.60
2023-03-21T01:47:27.303Z,7.60
2023-03-21T01:49:58.964Z,7.60
2023-03-21T01:52:37.075Z,7.60
2023-03-21T01:55:12.071Z,7.60
2023-03-21T01:57:58.485Z,7.70
2023-03-21T02:00:33.583Z,7.70
2023-03-21T02:03:13.627Z,7.70
2023-03-21T02:05:53.125Z,7.70
2023-03-21T02:08:25.897Z,7.70
2023-03-21T02:11:01.726Z,7.70
2023-03-21T02:13:31.519Z,7.60
2023-03-21T02:16:17.156Z,7.60
2023-03-21T02:18:56.384Z,7.60
2023-03-21T02:22:03.206Z,7.60
2023-03-21T02:25:22.032Z,7.60
2023-03-21T02:27:57.113Z,7.50
2023-03-21T02:30:51.971Z,7.50
2023-03-21T02:33:46.948Z,7.50
2023-03-21T02:36:39.392Z,7.60
2023-03-21T02:39:15.093Z,7.60
2023-03-21T02:41:49.834Z,7.60
2023-03-21T02:44:24.186Z,7.50
2023-03-21T02:47:05.256Z,7.60
2023-03-21T02:49:42.994Z,7.60
2023-03-21T02:52:22.909Z,7.60
2023-03-21T02:54:59.715Z,7.50
2023-03-21T02:57:40.064Z,7.40
2023-03-21T03:00:17.057Z,7.50
2023-03-21T03:02:48.877Z,7.50
2023-03-21T03:05:22.571Z,7.50
2023-03-21T03:08:20.498Z,7.50
2023-03-21T03:11:06.248Z,7.40
2023-03-21T03:13:45.440Z,7.50
2023-03-21T03:16:25.868Z,7.50
2023-03-21T03:18:56.364Z,7.50
2023-03-21T03:21:29.240Z,7.50
2023-03-21T03:26:38.651Z,7.50
2023-03-21T03:29:10.738Z,7.50
2023-03-21T03:31:42.520Z,7.40
2023-03-21T03:34:14.546Z,7.40
2023-03-21T03:36:47.791Z,7.40
2023-03-21T03:39:18.055Z,7.50
2023-03-21T03:42:18.306Z,7.50
2023-03-21T03:44:40.812Z,7.50
2023-03-21T03:47:17.490Z,7.50
2023-03-21T03:49:58.782Z,7.50
2023-03-21T03:52:32.080Z,7.50
2023-03-21T03:55:06.947Z,7.50
2023-03-21T03:57:42.657Z,7.40
2023-03-21T04:00:17.188Z,7.50
2023-03-21T04:02:50.235Z,7.50
2023-03-21T04:05:21.431Z,7.50
2023-03-21T04:07:52.976Z,7.50
2023-03-21T04:10:22.383Z,7.50
2023-03-21T04:12:55.870Z,7.50
2023-03-21T04:15:24.684Z,7.50
2023-03-21T04:17:54.102Z,7.50
2023-03-21T04:20:43.298Z,7.50
2023-03-21T04:23:14.513Z,7.50
2023-03-21T04:25:55.612Z,7.50
2023-03-21T04:28:39.883Z,7.50
2023-03-21T04:31:25.088Z,7.40
2023-03-21T04:33:56.397Z,7.50
2023-03-21T04:36:33.490Z,7.50
2023-03-21T04:39:05.013Z,7.50
2023-03-21T04:41:35.634Z,7.50
2023-03-21T04:44:07.839Z,7.50
2023-03-21T04:46:36.929Z,7.40
2023-03-21T04:49:07.082Z,7.30
2023-03-21T04:51:37.168Z,7.40
2023-03-21T04:54:06.067Z,7.40
2023-03-21T04:56:36.117Z,7.40
2023-03-21T04:59:10.999Z,7.30
2023-03-21T05:01:43.860Z,7.30
2023-03-21T05:04:17.859Z,7.40
2023-03-21T05:07:02.762Z,7.40
2023-03-21T05:09:31.567Z,7.40
2023-03-21T05:12:06.996Z,7.40
2023-03-21T05:14:39.932Z,7.40
2023-03-21T05:17:08.913Z,7.40
2023-03-21T05:23:01.999Z,7.40
2023-03-21T05:25:35.682Z,7.40
2023-03-21T05:28:09.396Z,7.40
2023-03-21T05:30:39.339Z,7.40
2023-03-21T05:33:07.876Z,7.40
2023-03-21T05:35:36.868Z,7.30
2023-03-21T05:38:06.065Z,7.40
2023-03-21T05:40:34.294Z,7.40
2023-03-21T05:43:02.582Z,7.40
2023-03-21T05:45:31.111Z,7.40
2023-03-21T05:48:00.977Z,7.40
2023-03-21T05:50:30.523Z,7.50
2023-03-21T05:53:02.719Z,7.50
2023-03-21T05:55:31.162Z,7.50
2023-03-21T05:57:59.402Z,7.50
2023-03-21T06:00:29.650Z,7.60
2023-03-21T06:03:00.228Z,7.60
2023-03-21T06:05:29.602Z,7.60
2023-03-21T06:08:06.096Z,7.60
2023-03-21T06:10:34.985Z,7.70
2023-03-21T06:13:03.964Z,7.80
2023-03-21T06:15:32.523Z,7.80
2023-03-21T06:18:03.954Z,7.80
2023-03-21T06:20:32.189Z,7.80
2023-03-21T06:23:00.653Z,7.80
2023-03-21T06:25:29.385Z,7.70
2023-03-21T06:28:14.541Z,7.90
2023-03-21T06:30:45.406Z,7.90
2023-03-21T06:36:19.549Z,8.10
2023-03-21T06:42:01.367Z,8.30
2023-03-21T06:44:35.843Z,8.20
2023-03-21T06:47:07.812Z,8.00
2023-03-21T06:49:37.710Z,8.20
2023-03-21T06:52:06.249Z,8.30
2023-03-21T06:54:36.230Z,8.40
2023-03-21T06:57:06.740Z,8.40
2023-03-21T06:59:35.026Z,8.30
2023-03-21T07:02:03.733Z,8.20
2023-03-21T07:04:32.475Z,8.20
2023-03-21T07:07:02.175Z,8.20
2023-03-21T07:09:34.728Z,8.30
2023-03-21T07:12:03.997Z,8.40
2023-03-21T07:14:34.745Z,8.50
2023-03-21T07:17:02.953Z,8.50
2023-03-21T07:19:31.298Z,8.60
2023-03-21T07:22:02.421Z,8.60
2023-03-21T07:24:55.946Z,8.80
2023-03-21T07:27:41.410Z,9.20
2023-03-21T07:30:12.444Z,11.80
2023-03-21T07:32:41.640Z,15.30
2023-03-21T07:35:15.046Z,13.20
2023-03-21T07:38:02.849Z,12.70
2023-03-21T07:40:33.897Z,12.00
2023-03-21T07:45:51.578Z,11.60
2023-03-21T07:48:19.989Z,12.30
2023-03-21T07:50:50.035Z,12.50
2023-03-21T07:53:18.612Z,15.30
2023-03-21T07:55:51.384Z,17.40
2023-03-21T07:58:19.991Z,17.50
2023-03-21T08:00:51.767Z,18.30
2023-03-21T08:03:20.164Z,15.70
2023-03-21T08:05:49.206Z,13.60
2023-03-21T08:08:18.816Z,13.30
2023-03-21T08:10:51.500Z,14.80
2023-03-21T08:13:19.876Z,15.40
2023-03-21T08:15:48.638Z,14.60
2023-03-21T08:18:19.491Z,16.80
2023-03-21T08:20:52.315Z,16.30
2023-03-21T08:23:21.268Z,15.00
2023-03-21T08:25:54.615Z,17.70
2023-03-21T08:28:24.248Z,16.00
2023-03-21T08:30:52.560Z,14.50
2023-03-21T08:33:20.971Z,13.80
2023-03-21T08:36:14.245Z,15.30
2023-03-21T08:38:42.943Z,15.30
2023-03-21T08:41:12.682Z,12.70
2023-03-21T08:43:41.104Z,11.70
2023-03-21T08:46:11.620Z,13.10
2023-03-21T08:48:39.895Z,12.50
2023-03-21T08:51:08.584Z,12.30
2023-03-21T08:53:36.790Z,12.00
2023-03-21T08:56:05.220Z,12.70
2023-03-21T08:58:36.189Z,12.70
2023-03-21T09:01:07.215Z,12.20
2023-03-21T09:03:36.944Z,13.00
2023-03-21T09:06:05.579Z,13.60
2023-03-21T09:08:33.840Z,13.40
2023-03-21T09:11:12.448Z,14.40
2023-03-21T09:13:45.759Z,13.10
2023-03-21T09:16:14.227Z,12.40
2023-03-21T09:18:50.512Z,12.60
2023-03-21T09:21:20.622Z,12.80
2023-03-21T09:23:52.792Z,12.60
2023-03-21T09:26:21.694Z,12.80
2023-03-21T09:28:52.158Z,12.40
2023-03-21T09:31:22.877Z,12.60
2023-03-21T09:34:01.178Z,12.90
2023-03-21T09:36:32.762Z,12.90
2023-03-21T09:39:09.115Z,12.80
2023-03-21T09:41:53.838Z,13.00
2023-03-21T09:44:43.813Z,13.20
2023-03-21T09:47:21.800Z,12.80
2023-03-21T09:50:01.740Z,13.00
2023-03-21T09:52:45.767Z,12.90
2023-03-21T09:55:19.939Z,12.80
2023-03-21T09:58:14.070Z,12.30
2023-03-21T10:00:49.481Z,12.70
2023-03-21T10:03:24.072Z,12.50
2023-03-21T10:05:57.499Z,13.00
2023-03-21T10:08:32.206Z,13.00
2023-03-21T10:11:03.864Z,13.20
2023-03-21T10:13:36.364Z,13.60
2023-03-21T10:16:20.827Z,13.00
2023-03-21T10:18:50.540Z,13.10
2023-03-21T10:21:47.386Z,13.30
2023-03-21T10:24:14.563Z,13.10
2023-03-21T10:26:45.474Z,13.50
2023-03-21T10:29:22.635Z,13.80
2023-03-21T10:31:54.410Z,13.20
2023-03-21T10:34:29.800Z,13.10
2023-03-21T10:36:58.028Z,13.50
2023-03-21T10:39:47.619Z,12.80
2023-03-21T10:42:21.568Z,13.20
2023-03-21T10:44:51.944Z,13.60
2023-03-21T10:47:33.687Z,13.40
2023-03-21T10:50:08.066Z,13.10
2023-03-21T10:52:43.796Z,13.30
2023-03-21T10:55:30.034Z,13.00
2023-03-21T10:58:01.787Z,13.20
2023-03-21T11:00:36.919Z,13.40
2023-03-21T11:03:06.999Z,13.40
2023-03-21T11:05:37.672Z,12.90
2023-03-21T11:08:11.810Z,12.90
2023-03-21T11:11:02.749Z,13.30
2023-03-21T11:13:38.729Z,12.90
2023-03-21T11:16:10.528Z,13.00
2023-03-21T11:18:44.390Z,13.30
2023-03-21T11:21:14.798Z,13.20
2023-03-21T11:23:50.675Z,12.90
2023-03-21T11:26:24.419Z,13.10
2023-03-21T11:28:53.398Z,13.20
2023-03-21T11:31:25.040Z,13.00
2023-03-21T11:34:00.005Z,12.70
2023-03-21T11:36:39.057Z,12.70
2023-03-21T11:39:31.730Z,12.70
2023-03-21T11:42:00.171Z,12.60
2023-03-21T11:44:31.474Z,12.80
2023-03-21T11:47:00.122Z,12.90
2023-03-21T11:49:30.071Z,12.70
2023-03-21T11:52:12.643Z,12.70
2023-03-21T11:55:05.786Z,12.50
2023-03-21T11:58:14.262Z,12.80
2023-03-21T12:00:54.795Z,12.60
2023-03-21T12:03:47.738Z,12.60
2023-03-21T12:06:29.548Z,12.60
2023-03-21T12:09:30.657Z,12.80
2023-03-21T12:14:51.998Z,12.60
2023-03-21T12:17:34.641Z,12.50
2023-03-21T12:20:15.142Z,12.40
2023-03-21T12:26:45.080Z,12.30
2023-03-21T12:29:38.711Z,12.00
2023-03-21T12:32:17.535Z,11.60
2023-03-21T12:35:16.972Z,11.70
2023-03-21T12:38:08.366Z,11.50
2023-03-21T12:47:04.010Z,11.40
2023-03-21T12:49:36.467Z,11.50
2023-03-21T12:52:09.005Z,11.50
2023-03-21T12:54:41.437Z,11.30
2023-03-21T12:57:14.766Z,11.30
2023-03-21T12:59:49.699Z,11.20
2023-03-21T13:02:30.651Z,11.40
2023-03-21T13:05:04.787Z,11.40
2023-03-21T13:07:38.574Z,11.10
2023-03-21T13:13:13.537Z,11.10
2023-03-21T13:15:56.693Z,10.80
2023-03-21T13:18:38.125Z,11.00
2023-03-21T13:21:13.491Z,10.90
2023-03-21T13:23:56.663Z,10.70
2023-03-21T13:26:35.525Z,10.70
2023-03-21T13:29:15.643Z,10.70
2023-03-21T13:31:58.148Z,10.40
2023-03-21T13:34:53.876Z,10.60
2023-03-21T13:38:13.199Z,10.70
2023-03-21T13:40:52.213Z,10.60
2023-03-21T13:44:08.732Z,10.70
2023-03-21T13:50:28.655Z,10.50
2023-03-21T13:53:26.434Z,10.40
2023-03-21T13:56:26.383Z,10.20
2023-03-21T13:59:00.786Z,10.20
2023-03-21T14:01:59.906Z,10.10
2023-03-21T14:04:42.154Z,10.10
2023-03-21T14:07:24.874Z,10.20
2023-03-21T14:09:55.226Z,10.00
2023-03-21T14:12:31.882Z,10.10
2023-03-21T14:15:16.253Z,9.70
2023-03-21T14:18:16.304Z,9.80
2023-03-21T14:20:43.657Z,9.80
2023-03-21T14:23:18.280Z,9.90
2023-03-21T14:25:51.943Z,9.90
2023-03-21T14:28:31.479Z,9.80
2023-03-21T14:31:03.041Z,9.90
2023-03-21T14:34:33.771Z,9.80
2023-03-21T14:37:11.744Z,10.10
2023-03-21T14:40:10.417Z,9.90
2023-03-21T14:42:42.635Z,9.90
2023-03-21T14:45:30.926Z,10.00
2023-03-21T14:48:02.223Z,9.90
2023-03-21T14:50:37.514Z,10.00
2023-03-21T14:53:13.561Z,10.10
2023-03-21T14:55:52.175Z,10.10
2023-03-21T14:58:22.153Z,10.00
2023-03-21T15:00:56.258Z,10.00
2023-03-21T15:03:32.096Z,10.00
2023-03-21T15:06:08.568Z,9.90
2023-03-21T15:08:38.334Z,9.80
2023-03-21T15:11:48.902Z,9.80
2023-03-21T15:14:19.441Z,9.70
2023-03-21T15:16:57.121Z,9.20
2023-03-21T15:19:37.160Z,9.30
2023-03-21T15:22:22.720Z,9.20
2023-03-21T15:25:04.112Z,9.20
2023-03-21T15:27:45.340Z,9.20
2023-03-21T15:30:39.749Z,9.40
2023-03-21T15:33:10.766Z,9.30
2023-03-21T15:35:42.571Z,9.50
2023-03-21T15:39:02.717Z,9.30
2023-03-21T15:41:59.039Z,9.10
2023-03-21T15:45:09.196Z,9.40
2023-03-21T15:47:42.354Z,9.40
2023-03-21T15:50:26.027Z,9.20
2023-03-21T15:53:17.545Z,9.20
2023-03-21T15:55:50.030Z,9.00
2023-03-21T15:58:23.254Z,8.90
2023-03-21T16:00:55.421Z,8.90
2023-03-21T16:03:32.406Z,8.90
2023-03-21T16:06:13.636Z,9.00
2023-03-21T16:08:47.343Z,9.00
2023-03-21T16:11:25.910Z,8.70
2023-03-21T16:14:07.533Z,8.80
2023-03-21T16:16:48.970Z,8.80
2023-03-21T16:22:24.589Z,8.80
2023-03-21T16:24:55.338Z,8.80
2023-03-21T16:27:25.476Z,8.80
2023-03-21T16:30:04.503Z,8.50
2023-03-21T16:35:50.640Z,8.80
2023-03-21T16:38:32.688Z,8.80
2023-03-21T16:41:04.510Z,8.90
2023-03-21T16:43:32.718Z,8.90
2023-03-21T16:46:02.718Z,8.90
2023-03-21T16:48:31.654Z,8.70
2023-03-21T16:51:02.084Z,8.70
2023-03-21T16:53:31.577Z,8.70
2023-03-21T16:59:34.155Z,8.70
2023-03-21T17:02:31.413Z,8.70
2023-03-21T17:05:03.714Z,8.70
2023-03-21T17:07:48.751Z,8.60
2023-03-21T17:10:29.214Z,8.80
2023-03-21T17:13:09.412Z,8.70
2023-03-21T17:15:50.249Z,8.70
2023-03-21T17:18:33.143Z,8.70
2023-03-21T17:21:21.617Z,8.70
2023-03-21T17:24:06.388Z,8.70
2023-03-21T17:26:40.283Z,8.80
2023-03-21T17:29:17.718Z,8.70
2023-03-21T17:35:06.614Z,8.70
2023-03-21T17:37:41.484Z,8.90
2023-03-21T17:40:26.856Z,8.90
2023-03-21T17:42:55.927Z,8.80
2023-03-21T17:45:24.602Z,9.00
2023-03-21T17:47:56.563Z,8.90
2023-03-21T17:50:35.430Z,9.00
2023-03-21T17:53:18.832Z,9.00
2023-03-21T17:55:52.199Z,8.90
2023-03-21T17:58:25.985Z,8.90
2023-03-21T18:00:55.498Z,9.00
2023-03-21T18:03:31.597Z,9.00
2023-03-21T18:06:04.378Z,8.90
2023-03-21T18:08:34.559Z,9.00
2023-03-21T18:11:12.821Z,9.00
2023-03-21T18:14:18.073Z,8.90
2023-03-21T18:17:00.096Z,8.60
2023-03-21T18:19:34.656Z,8.80
2023-03-21T18:22:06.235Z,8.70
2023-03-21T18:24:34.544Z,8.80
2023-03-21T18:27:02.823Z,8.70
2023-03-21T18:30:19.734Z,8.70
2023-03-21T18:32:23.461Z,8.70
2023-03-21T18:34:54.667Z,8.70
2023-03-21T18:37:26.480Z,8.70
2023-03-21T18:43:52.573Z,8.70
2023-03-21T18:45:40.734Z,8.70
2023-03-21T18:48:13.983Z,8.70
2023-03-21T18:50:46.574Z,8.70
2023-03-21T18:53:19.463Z,8.70
2023-03-21T18:55:52.371Z,8.70
2023-03-21T18:58:22.742Z,8.70
2023-03-21T19:00:54.702Z,8.70
2023-03-21T19:03:35.825Z,8.70
2023-03-21T19:06:19.456Z,8.70
2023-03-21T19:08:57.177Z,8.70
2023-03-21T19:11:31.822Z,8.80
2023-03-21T19:14:04.945Z,8.80
2023-03-21T19:17:15.013Z,8.70
2023-03-21T19:19:34.402Z,8.70
2023-03-21T19:22:06.272Z,8.60
2023-03-21T19:24:37.556Z,8.60
2023-03-21T19:27:12.316Z,8.60
2023-03-21T19:29:43.940Z,8.60
2023-03-21T19:32:14.428Z,8.60
2023-03-21T19:34:47.042Z,8.60
2023-03-21T19:39:53.862Z,8.50
2023-03-21T19:42:29.285Z,8.50
2023-03-21T19:44:59.230Z,8.40
2023-03-21T19:47:28.506Z,8.30
2023-03-21T19:52:58.105Z,8.20
2023-03-21T19:55:28.277Z,8.30
2023-03-21T19:58:09.251Z,8.30
2023-03-21T20:00:44.591Z,8.30
2023-03-21T20:03:21.806Z,8.30
2023-03-21T20:05:53.405Z,8.30
2023-03-21T20:08:27.623Z,8.30
2023-03-21T20:11:00.179Z,8.40
2023-03-21T20:13:31.604Z,8.40
2023-03-21T20:16:10.656Z,8.30
2023-03-21T20:19:10.540Z,8.40
2023-03-21T20:21:49.146Z,8.40
2023-03-21T20:24:21.154Z,8.40
2023-03-21T20:26:58.471Z,8.40
2023-03-21T20:32:33.949Z,8.50
2023-03-21T20:36:17.847Z,8.40
2023-03-21T20:38:22.332Z,8.40
2023-03-21T20:40:52.041Z,8.40
2023-03-21T20:46:27.301Z,8.40
2023-03-21T20:48:59.411Z,8.40
2023-03-21T20:55:29.145Z,8.30
2023-03-21T20:58:36.570Z,8.40
2023-03-21T21:01:21.323Z,8.40
2023-03-21T21:04:44.276Z,8.40
2023-03-21T21:07:16.284Z,8.30
2023-03-21T21:09:46.001Z,8.20
2023-03-21T21:12:20.052Z,8.20
2023-03-21T21:14:53.522Z,8.20
2023-03-21T21:18:04.685Z,8.20
2023-03-21T21:20:39.395Z,8.10
2023-03-21T21:23:13.552Z,8.10
2023-03-21T21:25:42.753Z,8.00
2023-03-21T21:31:25.427Z,8.00
2023-03-21T21:34:02.144Z,8.00
2023-03-21T21:36:34.176Z,8.00
2023-03-21T21:39:07.093Z,8.00
2023-03-21T21:41:36.333Z,8.10
2023-03-21T21:46:39.990Z,8.10
2023-03-21T21:49:11.757Z,8.10
2023-03-21T21:51:43.720Z,8.10
2023-03-21T21:54:27.550Z,8.20
2023-03-21T21:57:00.101Z,8.20
2023-03-21T21:59:29.422Z,8.00
2023-03-21T22:01:59.715Z,8.00
2023-03-21T22:04:30.299Z,7.90
2023-03-21T22:06:59.344Z,7.90
2023-03-21T22:09:34.526Z,7.90
2023-03-21T22:12:09.796Z,7.90
2023-03-21T22:14:39.698Z,7.90
2023-03-21T22:17:08.822Z,7.80
2023-03-21T22:19:40.722Z,7.70
2023-03-21T22:22:09.218Z,7.70
2023-03-21T22:24:38.784Z,7.70
2023-03-21T22:27:10.413Z,7.70
2023-03-21T22:29:40.704Z,7.70
2023-03-21T22:32:13.806Z,7.60
2023-03-21T22:34:44.074Z,7.70
2023-03-21T22:37:12.925Z,7.60
2023-03-21T22:39:43.248Z,7.50
2023-03-21T22:42:11.495Z,7.50
2023-03-21T22:44:43.312Z,7.50
2023-03-21T22:47:30.978Z,7.50
2023-03-21T22:50:03.749Z,7.50
2023-03-21T22:52:32.452Z,7.40
2023-03-21T22:55:10.362Z,7.40
2023-03-21T22:57:43.427Z,7.40
2023-03-21T23:00:18.563Z,7.30
2023-03-21T23:02:47.297Z,7.30
2023-03-21T23:05:17.963Z,7.40
2023-03-21T23:07:46.927Z,7.30
2023-03-21T23:10:15.875Z,7.30
2023-03-21T23:12:44.575Z,7.20
2023-03-21T23:15:13.749Z,7.20
2023-03-21T23:17:47.099Z,7.20
2023-03-21T23:20:17.445Z,7.10
2023-03-21T23:22:46.286Z,7.10
2023-03-21T23:25:15.181Z,7.10
2023-03-21T23:27:47.244Z,7.10
2023-03-21T23:30:20.696Z,7.00
2023-03-21T23:32:49.807Z,7.10
2023-03-21T23:35:24.684Z,7.00
2023-03-21T23:37:53.588Z,7.00
2023-03-21T23:40:22.833Z,6.90
2023-03-21T23:42:51.076Z,6.90
2023-03-21T23:45:19.594Z,6.80
2023-03-21T23:47:47.889Z,6.80
2023-03-21T23:50:17.432Z,6.70
2023-03-21T23:52:47.082Z,6.70
2023-03-21T23:55:15.445Z,6.70
2023-03-21T23:57:44.685Z,6.70
